Time;durP1;ratioP1;P1;durP2;ratioP2;P2;SDS_P1;SDS_P2;PMS_P1;PMS_P2;Temp;Humidity;BMP_temperature;BMP_pressure;BME280_temperature;BME280_humidity;BME280_pressure;Samples;Min_cycle;Max_cycle;Signal;HPM_P1;HPM_P2
2022/01/13 07:02:59;;;;;;;30.50;17.98;;;;;;;;;;4848772;29;20101;-80
2022/01/13 07:05:25;;;;;;;28.80;18.30;;;;;;;;;;4843963;29;20444;-78
2022/01/13 07:07:52;;;;;;;26.02;18.00;;;;;;;;;;4840761;29;20442;-79
2022/01/13 07:10:19;;;;;;;27.67;18.90;;;;;;;;;;4837783;29;20089;-79
2022/01/13 07:12:46;;;;;;;27.52;18.67;;;;;;;;;;4853274;29;20114;-79
2022/01/13 07:15:12;;;;;;;28.55;18.25;;;;;;;;;;4842230;29;20118;-79
2022/01/13 07:17:40;;;;;;;24.73;17.45;;;;;;;;;;4842211;29;20519;-80
2022/01/13 07:20:07;;;;;;;28.80;18.20;;;;;;;;;;4841955;29;20515;-76
2022/01/13 07:22:37;;;;;;;28.85;19.88;;;;;;;;;;4839330;29;20054;-80
2022/01/13 07:25:05;;;;;;;23.50;16.85;;;;;;;;;;4852827;29;20483;-79
2022/01/13 07:27:37;;;;;;;25.30;16.55;;;;;;;;;;4839849;29;20241;-78
2022/01/13 07:30:04;;;;;;;24.55;16.85;;;;;;;;;;4842860;29;20205;-78
2022/01/13 07:32:31;;;;;;;25.33;16.95;;;;;;;;;;4845775;29;20049;-78
2022/01/13 07:34:57;;;;;;;26.98;17.77;;;;;;;;;;4847495;29;20575;-78
2022/01/13 07:37:24;;;;;;;25.20;17.15;;;;;;;;;;4840548;29;20057;-78
2022/01/13 07:39:51;;;;;;;24.65;16.00;;;;;;;;;;4837678;29;20085;-78
2022/01/13 07:42:18;;;;;;;24.73;15.73;;;;;;;;;;4851877;29;20045;-78
2022/01/13 07:44:44;;;;;;;26.80;15.65;;;;;;;;;;4841090;29;20122;-79
2022/01/13 07:47:11;;;;;;;23.92;16.10;;;;;;;;;;4840703;29;20054;-77
2022/01/13 07:49:37;;;;;;;23.52;16.33;;;;;;;;;;4840851;29;20084;-80
2022/01/13 07:52:04;;;;;;;24.85;15.88;;;;;;;;;;4838058;29;20109;-78
2022/01/13 07:54:31;;;;;;;22.33;15.10;;;;;;;;;;4839247;29;20061;-77
2022/01/13 07:57:00;;;;;;;24.70;15.88;;;;;;;;;;4841970;29;20080;-78
2022/01/13 07:59:28;;;;;;;26.30;15.85;;;;;;;;;;4840261;29;20447;-77
2022/01/13 08:01:58;;;;;;;25.50;16.63;;;;;;;;;;4853738;29;20479;-77
2022/01/13 08:04:25;;;;;;;26.52;16.50;;;;;;;;;;4858582;29;20324;-78
2022/01/13 08:06:52;;;;;;;22.20;15.52;;;;;;;;;;4855387;29;20053;-80
2022/01/13 08:09:22;;;;;;;25.83;17.02;;;;;;;;;;4857091;29;20152;-79
2022/01/13 08:11:49;;;;;;;25.92;15.85;;;;;;;;;;4869881;29;20053;-78
2022/01/13 08:14:15;;;;;;;33.50;17.10;;;;;;;;;;4865732;29;20050;-77
2022/01/13 08:16:44;;;;;;;23.13;16.15;;;;;;;;;;4862284;29;20053;-78
2022/01/13 08:21:56;;;;;;;23.85;15.18;;;;;;;;;;4845073;29;20939;-78
2022/01/13 08:24:23;;;;;;;25.55;16.40;;;;;;;;;;4861288;29;20104;-78
2022/01/13 08:26:50;;;;;;;27.58;16.73;;;;;;;;;;4862020;29;20081;-78
2022/01/13 08:29:16;;;;;;;24.90;16.65;;;;;;;;;;4864194;29;20080;-78
2022/01/13 08:31:43;;;;;;;23.05;16.23;;;;;;;;;;4870201;29;20112;-78
2022/01/13 08:34:11;;;;;;;26.88;17.80;;;;;;;;;;4860109;29;20049;-78
2022/01/13 08:36:38;;;;;;;24.00;16.33;;;;;;;;;;4859295;29;20080;-79
2022/01/13 08:39:05;;;;;;;25.27;16.25;;;;;;;;;;4862338;29;20058;-79
2022/01/13 08:41:35;;;;;;;23.33;15.15;;;;;;;;;;4861704;29;20045;-79
2022/01/13 08:44:02;;;;;;;21.83;16.05;;;;;;;;;;4862448;29;20476;-79
2022/01/13 08:46:28;;;;;;;22.42;15.40;;;;;;;;;;4861363;29;20516;-78
2022/01/13 08:48:55;;;;;;;25.50;16.38;;;;;;;;;;4858225;29;20057;-79
2022/01/13 08:51:22;;;;;;;24.73;15.60;;;;;;;;;;4873038;29;20084;-77
2022/01/13 08:53:49;;;;;;;21.42;15.68;;;;;;;;;;4868701;29;20057;-78
2022/01/13 08:56:16;;;;;;;25.52;14.98;;;;;;;;;;4864573;29;20072;-79
2022/01/13 08:58:43;;;;;;;25.02;15.25;;;;;;;;;;4861965;29;20053;-79
2022/01/13 09:01:10;;;;;;;21.00;15.10;;;;;;;;;;4859709;29;20105;-79
2022/01/13 09:03:37;;;;;;;21.38;14.70;;;;;;;;;;4859152;29;20110;-78
2022/01/13 09:06:04;;;;;;;21.33;14.60;;;;;;;;;;4861154;29;20061;-78
2022/01/13 09:08:34;;;;;;;20.02;14.13;;;;;;;;;;4859919;29;20072;-78
2022/01/13 09:11:01;;;;;;;18.98;14.18;;;;;;;;;;4861010;29;20049;-77
2022/01/13 09:13:33;;;;;;;18.80;14.40;;;;;;;;;;4855335;29;20124;-78
2022/01/13 09:16:00;;;;;;;20.23;14.48;;;;;;;;;;4851203;29;20065;-78
2022/01/13 09:21:28;;;;;;;21.60;16.08;;;;;;;;;;4795589;29;20051;-79
2022/01/13 09:23:55;;;;;;;24.02;14.70;;;;;;;;;;4798166;29;20063;-78
2022/01/13 09:26:22;;;;;;;22.67;15.32;;;;;;;;;;4797784;29;20168;-79
2022/01/13 09:28:49;;;;;;;20.95;14.52;;;;;;;;;;4797710;29;20058;-79
2022/01/13 09:31:15;;;;;;;19.55;14.30;;;;;;;;;;4798573;29;20455;-79
2022/01/13 09:33:42;;;;;;;18.42;14.43;;;;;;;;;;4794776;29;20189;-79
2022/01/13 09:36:09;;;;;;;19.48;14.63;;;;;;;;;;4795448;29;20054;-79
2022/01/13 09:38:37;;;;;;;19.35;14.10;;;;;;;;;;4798775;29;20481;-79
2022/01/13 09:41:04;;;;;;;20.73;15.25;;;;;;;;;;4798287;29;20596;-78
2022/01/13 09:43:30;;;;;;;18.13;14.10;;;;;;;;;;4797995;29;20138;-78
2022/01/13 09:45:58;;;;;;;20.80;14.10;;;;;;;;;;4796287;29;20138;-79
2022/01/13 09:48:28;;;;;;;17.77;13.70;;;;;;;;;;4791181;29;20058;-77
2022/01/13 09:50:55;;;;;;;17.05;14.30;;;;;;;;;;4795185;29;20055;-78
2022/01/13 09:53:22;;;;;;;18.52;13.95;;;;;;;;;;4795613;29;20055;-77
2022/01/13 09:55:48;;;;;;;21.00;13.77;;;;;;;;;;4796341;29;20062;-78
2022/01/13 09:58:15;;;;;;;18.80;14.25;;;;;;;;;;4850136;29;20045;-78
2022/01/13 10:00:44;;;;;;;18.77;13.93;;;;;;;;;;4853421;29;20065;-78
2022/01/13 10:03:27;;;;;;;17.10;13.98;;;;;;;;;;4851945;29;20153;-78
2022/01/13 10:06:00;;;;;;;17.75;13.77;;;;;;;;;;4853868;29;20089;-78
2022/01/13 10:08:40;;;;;;;16.27;12.93;;;;;;;;;;4850749;29;20065;-79
2022/01/13 10:11:28;;;;;;;16.25;13.35;;;;;;;;;;4854091;29;20753;-78
2022/01/13 10:16:22;;;;;;;16.60;13.40;;;;;;;;;;4854896;29;20095;-78
2022/01/13 10:17:05;;;;;;;17.75;13.70;;;;;;;;;;4854826;29;20765;-79
2022/01/13 10:19:40;;;;;;;20.23;14.18;;;;;;;;;;4854905;29;20045;-79
2022/01/13 10:22:10;;;;;;;19.77;14.13;;;;;;;;;;4853643;29;20403;-80
2022/01/13 10:24:40;;;;;;;18.05;13.60;;;;;;;;;;4854485;29;20045;-79
2022/01/13 10:27:07;;;;;;;17.75;13.25;;;;;;;;;;4854183;29;20610;-79
2022/01/13 10:29:42;;;;;;;18.08;13.38;;;;;;;;;;4856288;29;20558;-79
2022/01/13 10:32:11;;;;;;;20.83;14.25;;;;;;;;;;4850942;29;20057;-79
2022/01/13 10:34:40;;;;;;;15.35;12.90;;;;;;;;;;4856464;29;20077;-79
2022/01/13 10:37:11;;;;;;;19.00;13.35;;;;;;;;;;4854763;29;20120;-79
2022/01/13 10:39:44;;;;;;;16.88;12.85;;;;;;;;;;4853860;29;20049;-78
2022/01/13 10:45:04;;;;;;;15.02;11.70;;;;;;;;;;4868524;29;20049;-77
2022/01/13 10:47:31;;;;;;;15.07;13.10;;;;;;;;;;4867303;29;20053;-78
2022/01/13 10:50:08;;;;;;;15.73;12.35;;;;;;;;;;4866817;29;20060;-78
2022/01/13 10:52:35;;;;;;;16.17;12.30;;;;;;;;;;4867739;29;20068;-78
2022/01/13 10:55:10;;;;;;;16.92;12.55;;;;;;;;;;4853004;29;20117;-79
2022/01/13 10:57:57;;;;;;;17.17;12.00;;;;;;;;;;4854805;29;20053;-78
2022/01/13 11:00:25;;;;;;;14.93;12.32;;;;;;;;;;4865338;29;20128;-79
2022/01/13 11:03:07;;;;;;;14.40;11.90;;;;;;;;;;4866768;29;20518;-78
2022/01/13 11:05:49;;;;;;;17.17;12.70;;;;;;;;;;4865504;29;20870;-79
2022/01/13 11:08:26;;;;;;;14.15;12.02;;;;;;;;;;4866282;29;20048;-76
2022/01/13 11:10:54;;;;;;;13.82;11.13;;;;;;;;;;4843635;29;20089;-79
2022/01/13 11:13:22;;;;;;;13.15;11.27;;;;;;;;;;4851503;29;20045;-78
2022/01/13 11:15:55;;;;;;;14.52;11.38;;;;;;;;;;4866343;29;20128;-77
2022/01/13 11:18:25;;;;;;;14.05;10.55;;;;;;;;;;4848823;29;20449;-77
2022/01/13 11:20:53;;;;;;;11.30;9.95;;;;;;;;;;4865625;29;20084;-76
2022/01/13 11:23:21;;;;;;;12.70;10.90;;;;;;;;;;4849693;29;20069;-77
2022/01/13 11:25:54;;;;;;;13.85;10.13;;;;;;;;;;4851031;29;20085;-78
2022/01/13 11:28:21;;;;;;;11.70;9.70;;;;;;;;;;4850242;29;20049;-77
2022/01/13 11:30:52;;;;;;;12.00;9.43;;;;;;;;;;4854594;29;20577;-78
2022/01/13 11:33:20;;;;;;;11.68;9.95;;;;;;;;;;4851321;29;20102;-77
2022/01/13 11:35:55;;;;;;;11.40;9.38;;;;;;;;;;4853442;29;20065;-78
2022/01/13 11:38:27;;;;;;;11.25;9.60;;;;;;;;;;4852316;29;20054;-78
2022/01/13 11:41:03;;;;;;;11.65;8.88;;;;;;;;;;4855509;29;20053;-79
2022/01/13 11:43:39;;;;;;;11.68;9.18;;;;;;;;;;4855698;29;20053;-78
2022/01/13 11:46:19;;;;;;;12.15;9.00;;;;;;;;;;4856210;29;20642;-80
2022/01/13 11:48:59;;;;;;;10.88;8.77;;;;;;;;;;4855402;29;20574;-79
2022/01/13 11:51:29;;;;;;;10.07;8.35;;;;;;;;;;4852135;29;20057;-79
2022/01/13 11:54:04;;;;;;;11.20;8.45;;;;;;;;;;4856798;29;20136;-79
2022/01/13 11:56:39;;;;;;;11.27;8.40;;;;;;;;;;4857236;29;20041;-83
2022/01/13 11:59:10;;;;;;;10.25;8.43;;;;;;;;;;4855392;29;20530;-84
2022/01/13 12:01:38;;;;;;;11.95;8.77;;;;;;;;;;4857565;29;20049;-83
2022/01/13 12:04:06;;;;;;;10.32;8.43;;;;;;;;;;4858390;29;20056;-83
2022/01/13 12:06:38;;;;;;;11.15;8.65;;;;;;;;;;4839275;29;20060;-83
2022/01/13 12:09:08;;;;;;;11.43;8.95;;;;;;;;;;4855182;29;20057;-83
2022/01/13 12:11:37;;;;;;;11.52;9.30;;;;;;;;;;4858117;29;20089;-83
2022/01/13 12:17:17;;;;;;;10.18;8.73;;;;;;;;;;4845280;29;20514;-83
2022/01/13 12:19:49;;;;;;;9.23;8.05;;;;;;;;;;4857819;29;20061;-83
2022/01/13 12:22:30;;;;;;;10.45;8.75;;;;;;;;;;4856137;29;20057;-82
2022/01/13 12:24:59;;;;;;;10.90;7.90;;;;;;;;;;4854380;29;20061;-81
2022/01/13 12:27:43;;;;;;;12.65;9.70;;;;;;;;;;4853794;29;20105;-81
2022/01/13 12:30:13;;;;;;;23.73;16.42;;;;;;;;;;4855488;29;20610;-80
2022/01/13 12:32:47;;;;;;;18.85;14.10;;;;;;;;;;4857310;29;20050;-80
2022/01/13 12:35:34;;;;;;;15.63;9.40;;;;;;;;;;4854979;29;20098;-82
2022/01/13 12:38:03;;;;;;;9.20;7.35;;;;;;;;;;4847163;29;20049;-81
2022/01/13 12:40:39;;;;;;;20.10;10.50;;;;;;;;;;4853880;29;20057;-81
2022/01/13 12:43:51;;;;;;;30.55;17.42;;;;;;;;;;4854654;29;20129;-79
2022/01/13 12:46:24;;;;;;;31.77;15.07;;;;;;;;;;4855605;29;20046;-79
2022/01/13 12:48:53;;;;;;;9.65;7.40;;;;;;;;;;4854769;29;20429;-78
2022/01/13 12:51:21;;;;;;;;;;;;;;;;;;4853752;29;20078;-80
2022/01/13 12:53:49;;;;;;;11.97;8.53;;;;;;;;;;4853986;29;19971;-78
2022/01/13 12:56:21;;;;;;;8.13;6.35;;;;;;;;;;4855931;29;20049;-79
2022/01/13 12:58:53;;;;;;;9.00;6.88;;;;;;;;;;4854583;29;20064;-80
2022/01/13 13:01:29;;;;;;;17.70;12.05;;;;;;;;;;4853533;29;20053;-78
2022/01/13 13:03:59;;;;;;;14.63;8.65;;;;;;;;;;4857375;29;20052;-79
2022/01/13 13:06:26;;;;;;;10.18;6.63;;;;;;;;;;4852133;29;20815;-80
2022/01/13 13:09:00;;;;;;;9.20;6.70;;;;;;;;;;4840073;29;20122;-79
2022/01/13 13:11:31;;;;;;;12.45;7.97;;;;;;;;;;4854988;29;20076;-79
2022/01/13 13:13:58;;;;;;;9.18;7.20;;;;;;;;;;4853619;29;20049;-79
2022/01/13 13:16:25;;;;;;;8.18;6.38;;;;;;;;;;4854406;29;20114;-78
2022/01/13 13:18:52;;;;;;;8.30;6.05;;;;;;;;;;4855996;29;20057;-79
2022/01/13 13:21:19;;;;;;;10.20;7.32;;;;;;;;;;4853274;29;20057;-78
2022/01/13 13:23:46;;;;;;;7.95;6.35;;;;;;;;;;4855849;29;20053;-79
2022/01/13 13:26:18;;;;;;;11.48;7.90;;;;;;;;;;4854412;29;20153;-78
2022/01/13 13:28:48;;;;;;;7.85;6.53;;;;;;;;;;4856141;29;20055;-79
2022/01/13 13:31:17;;;;;;;8.90;6.93;;;;;;;;;;4852810;29;20060;-79
2022/01/13 13:34:02;;;;;;;8.30;6.30;;;;;;;;;;4853763;29;20058;-79
2022/01/13 13:36:31;;;;;;;6.78;5.88;;;;;;;;;;4851265;29;20057;-78
2022/01/13 13:39:12;;;;;;;8.95;7.25;;;;;;;;;;4853608;29;20046;-78
2022/01/13 13:41:42;;;;;;;7.15;5.82;;;;;;;;;;4853992;29;20073;-79
2022/01/13 13:44:18;;;;;;;8.20;6.13;;;;;;;;;;4853655;29;20060;-79
2022/01/13 13:46:55;;;;;;;6.60;5.82;;;;;;;;;;4853321;29;20151;-79
2022/01/13 13:49:22;;;;;;;7.85;6.47;;;;;;;;;;4853080;29;20153;-78
2022/01/13 13:51:55;;;;;;;8.05;6.35;;;;;;;;;;4855084;29;20063;-78
2022/01/13 13:54:52;;;;;;;7.70;6.70;;;;;;;;;;4850739;29;20140;-78
2022/01/13 13:57:23;;;;;;;9.05;6.35;;;;;;;;;;4850642;29;20054;-79
2022/01/13 13:59:55;;;;;;;7.85;6.10;;;;;;;;;;4854384;29;20068;-78
2022/01/13 14:02:34;;;;;;;8.25;6.50;;;;;;;;;;4852583;29;20056;-79
2022/01/13 14:05:04;;;;;;;8.68;6.13;;;;;;;;;;4853868;29;20049;-78
2022/01/13 14:07:39;;;;;;;7.95;5.93;;;;;;;;;;4855124;29;20054;-79
2022/01/13 14:10:20;;;;;;;8.73;6.15;;;;;;;;;;4853662;29;20554;-77
2022/01/13 14:12:56;;;;;;;6.88;5.35;;;;;;;;;;4853877;29;20092;-78
2022/01/13 14:15:34;;;;;;;7.97;5.72;;;;;;;;;;4851600;29;20053;-78
2022/01/13 14:18:14;;;;;;;9.13;6.30;;;;;;;;;;4854794;29;20052;-79
2022/01/13 14:20:45;;;;;;;8.23;6.38;;;;;;;;;;4848338;29;20053;-78
2022/01/13 14:23:25;;;;;;;8.05;5.93;;;;;;;;;;4852766;29;20117;-77
2022/01/13 14:26:02;;;;;;;8.13;6.35;;;;;;;;;;4853847;29;20057;-78
2022/01/13 14:28:32;;;;;;;7.78;6.03;;;;;;;;;;4853184;29;20483;-78
2022/01/13 14:31:05;;;;;;;8.85;6.20;;;;;;;;;;4854301;29;20041;-78
2022/01/13 14:33:39;;;;;;;7.97;6.20;;;;;;;;;;4850686;29;20408;-78
2022/01/13 14:36:17;;;;;;;8.13;5.85;;;;;;;;;;4833318;29;20050;-79
2022/01/13 14:38:57;;;;;;;8.13;6.38;;;;;;;;;;4852659;29;20605;-78
2022/01/13 14:41:42;;;;;;;7.13;6.30;;;;;;;;;;4851468;29;20335;-78
2022/01/13 14:44:13;;;;;;;8.20;6.47;;;;;;;;;;4848391;29;20049;-79
2022/01/13 14:46:45;;;;;;;8.05;5.72;;;;;;;;;;4853163;29;20556;-79
2022/01/13 14:49:13;;;;;;;9.48;6.25;;;;;;;;;;4852577;29;20081;-78
2022/01/13 14:51:47;;;;;;;7.63;6.25;;;;;;;;;;4853245;29;20101;-79
2022/01/13 14:54:15;;;;;;;8.10;5.75;;;;;;;;;;4851744;29;20090;-79
2022/01/13 14:56:43;;;;;;;8.57;6.90;;;;;;;;;;4851019;29;20115;-77
2022/01/13 14:59:11;;;;;;;8.60;6.85;;;;;;;;;;4848247;29;20073;-78
2022/01/13 15:01:38;;;;;;;8.02;6.20;;;;;;;;;;4851596;29;20109;-78
2022/01/13 15:04:05;;;;;;;9.55;6.60;;;;;;;;;;4850131;29;20542;-78
2022/01/13 15:06:34;;;;;;;13.00;6.60;;;;;;;;;;4849749;29;20053;-79
2022/01/13 15:09:00;;;;;;;;;;;;;;;;;;4852218;29;20511;-79
2022/01/13 15:11:27;;;;;;;10.27;7.05;;;;;;;;;;4836263;29;19947;-78
2022/01/13 15:13:54;;;;;;;8.60;6.78;;;;;;;;;;4846642;29;20478;-78
2022/01/13 15:16:23;;;;;;;9.38;7.00;;;;;;;;;;4851494;29;20045;-78
2022/01/13 15:18:54;;;;;;;9.45;7.55;;;;;;;;;;4854808;29;20077;-79
2022/01/13 15:21:25;;;;;;;12.70;7.53;;;;;;;;;;4855438;29;20062;-79
2022/01/13 15:23:52;;;;;;;11.30;8.00;;;;;;;;;;4856451;29;20085;-78
2022/01/13 15:26:20;;;;;;;12.95;8.70;;;;;;;;;;4854687;29;20077;-78
2022/01/13 15:28:48;;;;;;;11.48;7.93;;;;;;;;;;4854094;29;20547;-78
2022/01/13 15:31:15;;;;;;;10.98;7.72;;;;;;;;;;4855397;29;20059;-79
2022/01/13 15:33:43;;;;;;;10.02;7.85;;;;;;;;;;4838809;29;20125;-78
2022/01/13 15:36:09;;;;;;;10.00;7.03;;;;;;;;;;4854180;29;20089;-78
2022/01/13 15:38:41;;;;;;;8.43;6.93;;;;;;;;;;4854766;29;20049;-78
2022/01/13 15:41:08;;;;;;;10.35;7.45;;;;;;;;;;4851631;29;20050;-79
2022/01/13 15:43:35;;;;;;;10.88;7.35;;;;;;;;;;4853674;29;20106;-78
2022/01/13 15:46:02;;;;;;;10.95;7.18;;;;;;;;;;4856907;29;20097;-78
2022/01/13 15:48:29;;;;;;;10.75;7.65;;;;;;;;;;4853980;29;20874;-79
2022/01/13 15:50:55;;;;;;;10.63;7.63;;;;;;;;;;4854978;29;20077;-79
2022/01/13 15:53:22;;;;;;;9.55;7.43;;;;;;;;;;4854890;29;20053;-78
2022/01/13 15:55:49;;;;;;;10.00;7.68;;;;;;;;;;4838865;29;20077;-79
2022/01/13 15:58:16;;;;;;;11.40;8.35;;;;;;;;;;4854706;29;20077;-79
2022/01/13 16:00:43;;;;;;;53.28;35.90;;;;;;;;;;4838156;29;20053;-78
2022/01/13 16:03:10;;;;;;;14.35;9.50;;;;;;;;;;4854581;29;20193;-79
2022/01/13 16:05:37;;;;;;;9.02;7.00;;;;;;;;;;4853233;29;20113;-79
2022/01/13 16:08:05;;;;;;;10.65;7.32;;;;;;;;;;4854621;29;20085;-79
2022/01/13 16:10:32;;;;;;;10.35;8.07;;;;;;;;;;4852124;29;20098;-78
2022/01/13 16:12:58;;;;;;;15.50;11.88;;;;;;;;;;4851239;29;20140;-78
2022/01/13 16:15:25;;;;;;;12.18;8.27;;;;;;;;;;4853752;29;20546;-78
2022/01/13 16:17:51;;;;;;;11.02;7.45;;;;;;;;;;4855037;29;20113;-77
2022/01/13 16:20:20;;;;;;;58.50;10.23;;;;;;;;;;4853645;29;20046;-78
2022/01/13 16:22:46;;;;;;;11.30;8.57;;;;;;;;;;4836149;29;20093;-77
2022/01/13 16:25:13;;;;;;;9.68;7.90;;;;;;;;;;4854417;29;20081;-76
2022/01/13 16:27:40;;;;;;;17.83;11.60;;;;;;;;;;4854168;29;20049;-77
2022/01/13 16:30:16;;;;;;;100.43;48.95;;;;;;;;;;4853467;29;20053;-77
2022/01/13 16:32:45;;;;;;;24.25;13.85;;;;;;;;;;4854644;29;20113;-77
2022/01/13 16:35:15;;;;;;;11.32;7.65;;;;;;;;;;4854092;29;20041;-76
2022/01/13 16:37:43;;;;;;;10.65;8.05;;;;;;;;;;4856723;29;20126;-77
2022/01/13 16:40:13;;;;;;;10.60;7.63;;;;;;;;;;4853774;29;20060;-77
2022/01/13 16:42:43;;;;;;;10.93;6.95;;;;;;;;;;4855011;29;20053;-77
2022/01/13 16:45:13;;;;;;;8.68;6.78;;;;;;;;;;4854124;29;20037;-77
2022/01/13 16:47:40;;;;;;;9.18;6.28;;;;;;;;;;4856060;29;20109;-77
2022/01/13 16:50:10;;;;;;;9.25;7.05;;;;;;;;;;4834381;29;20119;-77
2022/01/13 16:52:37;;;;;;;11.02;7.50;;;;;;;;;;4852895;29;20077;-77
2022/01/13 16:55:05;;;;;;;11.32;8.55;;;;;;;;;;4855417;29;20055;-77
2022/01/13 16:57:32;;;;;;;12.52;8.70;;;;;;;;;;4853126;29;20092;-77
2022/01/13 16:59:59;;;;;;;11.88;9.05;;;;;;;;;;4854145;29;20093;-77
2022/01/13 17:02:32;;;;;;;13.25;10.57;;;;;;;;;;4851292;29;20065;-77
2022/01/13 17:04:59;;;;;;;12.98;9.85;;;;;;;;;;4855783;29;20053;-77
2022/01/13 17:07:26;;;;;;;18.40;14.40;;;;;;;;;;4852096;29;20060;-77
2022/01/13 17:09:52;;;;;;;15.77;12.55;;;;;;;;;;4852347;29;20068;-77
2022/01/13 17:12:20;;;;;;;13.57;10.15;;;;;;;;;;4852952;29;20045;-77
2022/01/13 17:14:47;;;;;;;16.20;10.70;;;;;;;;;;4852662;29;20157;-77
2022/01/13 17:17:14;;;;;;;14.68;10.50;;;;;;;;;;4851405;29;20165;-76
2022/01/13 17:19:41;;;;;;;19.33;11.57;;;;;;;;;;4851805;29;20064;-77
2022/01/13 17:22:27;;;;;;;19.15;10.75;;;;;;;;;;4850271;29;20088;-77
2022/01/13 17:24:53;;;;;;;15.35;11.10;;;;;;;;;;4850230;29;20048;-77
2022/01/13 17:27:20;;;;;;;14.70;11.70;;;;;;;;;;4848832;29;20065;-77
2022/01/13 17:29:47;;;;;;;16.23;11.48;;;;;;;;;;4850397;29;20591;-76
2022/01/13 17:32:13;;;;;;;22.25;12.80;;;;;;;;;;4848821;29;20155;-77
2022/01/13 17:34:40;;;;;;;17.55;12.65;;;;;;;;;;4851536;29;20932;-78
2022/01/13 17:37:09;;;;;;;19.17;12.25;;;;;;;;;;4851812;29;20057;-76
2022/01/13 17:39:36;;;;;;;;;;;;;;;;;;4834393;29;20101;-76
2022/01/13 17:42:04;;;;;;;19.63;13.38;;;;;;;;;;4833595;29;20445;-75
2022/01/13 17:44:31;;;;;;;18.98;13.70;;;;;;;;;;4852506;29;20588;-78
2022/01/13 17:46:59;;;;;;;20.13;13.15;;;;;;;;;;4852048;29;20057;-77
2022/01/13 17:49:26;;;;;;;23.98;13.80;;;;;;;;;;4853389;29;20076;-79
2022/01/13 17:51:52;;;;;;;26.05;13.75;;;;;;;;;;4838258;29;20052;-79
2022/01/13 17:54:22;;;;;;;17.88;13.48;;;;;;;;;;4851329;29;20514;-78
2022/01/13 17:56:48;;;;;;;18.80;13.88;;;;;;;;;;4852509;29;20062;-78
2022/01/13 17:59:15;;;;;;;19.38;13.70;;;;;;;;;;4853104;29;20041;-77
2022/01/13 18:01:42;;;;;;;20.52;14.18;;;;;;;;;;4853571;29;20073;-78
2022/01/13 18:04:09;;;;;;;24.38;15.25;;;;;;;;;;4851950;29;20053;-80
2022/01/13 18:06:36;;;;;;;21.08;14.52;;;;;;;;;;4850334;29;20053;-76
2022/01/13 18:09:06;;;;;;;20.85;14.45;;;;;;;;;;4852767;29;20590;-77
2022/01/13 18:11:34;;;;;;;22.90;15.70;;;;;;;;;;4853867;29;20049;-77
2022/01/13 18:14:03;;;;;;;25.25;17.13;;;;;;;;;;4853300;29;20172;-77
2022/01/13 18:16:30;;;;;;;20.42;15.48;;;;;;;;;;4838051;29;20117;-77
2022/01/13 18:18:57;;;;;;;68.38;44.45;;;;;;;;;;4855737;29;20063;-77
2022/01/13 18:21:23;;;;;;;21.65;16.00;;;;;;;;;;4852421;29;20069;-78
2022/01/13 18:23:51;;;;;;;22.38;14.50;;;;;;;;;;4852915;29;20053;-77
2022/01/13 18:26:18;;;;;;;19.63;15.38;;;;;;;;;;4854077;29;20053;-77
2022/01/13 18:28:46;;;;;;;22.13;15.23;;;;;;;;;;4840716;29;21010;-77
2022/01/13 18:31:13;;;;;;;22.45;14.85;;;;;;;;;;4845517;29;20113;-77
2022/01/13 18:33:39;;;;;;;25.98;18.17;;;;;;;;;;4852107;29;20045;-76
2022/01/13 18:36:06;;;;;;;22.83;16.38;;;;;;;;;;4852121;29;20097;-76
2022/01/13 18:38:32;;;;;;;22.50;13.80;;;;;;;;;;4834812;29;20060;-76
2022/01/13 18:41:01;;;;;;;17.67;14.05;;;;;;;;;;4853264;29;20501;-76
2022/01/13 18:43:29;;;;;;;;;;;;;;;;;;4849380;29;20069;-76
2022/01/13 18:46:02;;;;;;;19.40;14.27;;;;;;;;;;4852302;29;19931;-76
2022/01/13 18:48:29;;;;;;;27.65;16.30;;;;;;;;;;4850439;29;20046;-76
2022/01/13 18:50:56;;;;;;;24.70;16.00;;;;;;;;;;4851927;29;20618;-76
2022/01/13 18:53:22;;;;;;;32.95;18.85;;;;;;;;;;4852100;29;20114;-76
2022/01/13 18:55:49;;;;;;;30.73;18.85;;;;;;;;;;4853533;29;20054;-77
2022/01/13 18:58:16;;;;;;;37.42;21.25;;;;;;;;;;4853125;29;20121;-77
2022/01/13 19:00:43;;;;;;;32.58;20.48;;;;;;;;;;4850691;29;20094;-77
2022/01/13 19:03:10;;;;;;;35.58;21.73;;;;;;;;;;4851888;29;20135;-77
2022/01/13 19:05:37;;;;;;;31.05;18.40;;;;;;;;;;4852977;29;20057;-77
2022/01/13 19:08:05;;;;;;;28.50;17.38;;;;;;;;;;4851159;29;20060;-77
2022/01/13 19:10:35;;;;;;;23.13;15.55;;;;;;;;;;4852012;29;20464;-76
2022/01/13 19:13:02;;;;;;;22.60;16.10;;;;;;;;;;4851726;29;24783;-76
2022/01/13 19:15:32;;;;;;;27.23;17.80;;;;;;;;;;4851502;29;20055;-79
2022/01/13 19:18:01;;;;;;;25.05;17.15;;;;;;;;;;4851622;29;20137;-77
2022/01/13 19:20:29;;;;;;;;;;;;;;;;;;4849195;29;20109;-77
2022/01/13 19:22:59;;;;;;;33.05;19.98;;;;;;;;;;4851681;29;19956;-77
2022/01/13 19:25:29;;;;;;;31.27;19.60;;;;;;;;;;4854941;29;20057;-79
2022/01/13 19:27:56;;;;;;;29.80;19.85;;;;;;;;;;4852081;29;20094;-79
2022/01/13 19:30:25;;;;;;;37.42;23.10;;;;;;;;;;4835237;29;20114;-79
2022/01/13 19:32:56;;;;;;;30.02;19.70;;;;;;;;;;4851410;29;20109;-79
2022/01/13 19:35:23;;;;;;;26.48;17.30;;;;;;;;;;4853654;29;20060;-79
2022/01/13 19:37:51;;;;;;;35.63;20.98;;;;;;;;;;4853312;29;20645;-79
2022/01/13 19:40:17;;;;;;;31.40;20.90;;;;;;;;;;4850827;29;20137;-79
2022/01/13 19:42:45;;;;;;;28.77;18.27;;;;;;;;;;4852412;29;20144;-79
2022/01/13 19:45:14;;;;;;;25.57;18.00;;;;;;;;;;4853279;29;20097;-78
2022/01/13 19:47:43;;;;;;;25.95;18.25;;;;;;;;;;4850779;29;20575;-78
2022/01/13 19:50:13;;;;;;;26.35;18.10;;;;;;;;;;4849668;29;20049;-77
2022/01/13 19:52:40;;;;;;;27.98;17.70;;;;;;;;;;4849744;29;20073;-77
2022/01/13 19:55:08;;;;;;;33.05;18.73;;;;;;;;;;4851077;29;20084;-77
2022/01/13 19:57:35;;;;;;;28.42;19.20;;;;;;;;;;4846918;29;20053;-77
2022/01/13 20:00:03;;;;;;;27.20;18.10;;;;;;;;;;4850178;29;20073;-77
2022/01/13 20:02:30;;;;;;;32.97;18.60;;;;;;;;;;4848765;29;20085;-77
2022/01/13 20:04:57;;;;;;;30.52;19.23;;;;;;;;;;4853003;29;20077;-76
2022/01/13 20:07:24;;;;;;;32.22;19.00;;;;;;;;;;4836377;29;20478;-77
2022/01/13 20:10:10;;;;;;;31.90;19.15;;;;;;;;;;4839015;29;20053;-77
2022/01/13 20:12:38;;;;;;;30.90;18.52;;;;;;;;;;4852585;29;20089;-78
2022/01/13 20:15:06;;;;;;;35.25;20.63;;;;;;;;;;4852062;29;20518;-79
2022/01/13 20:17:33;;;;;;;31.80;19.33;;;;;;;;;;4851354;29;20475;-77
2022/01/13 20:20:00;;;;;;;31.15;19.55;;;;;;;;;;4850002;29;20109;-78
2022/01/13 20:22:28;;;;;;;41.17;23.70;;;;;;;;;;4854123;29;20057;-77
2022/01/13 20:24:54;;;;;;;39.50;23.70;;;;;;;;;;4853840;29;20045;-78
2022/01/13 20:27:21;;;;;;;36.70;25.00;;;;;;;;;;4852523;29;20882;-79
2022/01/13 20:29:48;;;;;;;37.20;22.90;;;;;;;;;;4853500;29;20049;-78
2022/01/13 20:32:15;;;;;;;36.25;23.25;;;;;;;;;;4852884;29;20050;-77
2022/01/13 20:34:41;;;;;;;38.22;21.80;;;;;;;;;;4855200;29;20081;-78
2022/01/13 20:37:09;;;;;;;35.25;21.00;;;;;;;;;;4853459;29;20058;-77
2022/01/13 20:39:36;;;;;;;36.72;20.23;;;;;;;;;;4852673;29;20088;-77
2022/01/13 20:42:03;;;;;;;33.00;21.20;;;;;;;;;;4855323;29;20049;-77
2022/01/13 20:44:30;;;;;;;30.55;20.23;;;;;;;;;;4854024;29;20118;-77
2022/01/13 20:46:56;;;;;;;35.42;20.33;;;;;;;;;;4853151;29;20057;-77
2022/01/13 20:49:23;;;;;;;33.97;20.65;;;;;;;;;;4851711;29;20060;-77
2022/01/13 20:51:50;;;;;;;28.80;19.30;;;;;;;;;;4851653;29;20172;-78
2022/01/13 20:54:17;;;;;;;34.65;20.40;;;;;;;;;;4851185;29;20057;-78
2022/01/13 20:56:44;;;;;;;33.70;21.13;;;;;;;;;;4850894;29;20113;-78
2022/01/13 20:59:10;;;;;;;34.17;20.73;;;;;;;;;;4848395;29;20053;-77
2022/01/13 21:01:37;;;;;;;31.70;20.17;;;;;;;;;;4849419;29;20077;-77
2022/01/13 21:04:05;;;;;;;32.60;20.27;;;;;;;;;;4850780;29;20049;-78
2022/01/13 21:06:33;;;;;;;32.77;19.30;;;;;;;;;;4852236;29;20088;-77
2022/01/13 21:09:00;;;;;;;31.00;19.20;;;;;;;;;;4852799;29;20053;-78
2022/01/13 21:11:27;;;;;;;32.78;19.50;;;;;;;;;;4850648;29;20069;-78
2022/01/13 21:13:55;;;;;;;32.92;18.73;;;;;;;;;;4842899;29;20081;-76
2022/01/13 21:16:23;;;;;;;29.63;17.95;;;;;;;;;;4854528;29;20068;-78
2022/01/13 21:18:50;;;;;;;28.23;17.63;;;;;;;;;;4854843;29;20507;-78
2022/01/13 21:21:17;;;;;;;29.00;18.33;;;;;;;;;;4853979;29;20115;-78
2022/01/13 21:23:44;;;;;;;31.08;18.40;;;;;;;;;;4857587;29;20069;-78
2022/01/13 21:26:12;;;;;;;30.25;19.05;;;;;;;;;;4840543;29;20056;-78
2022/01/13 21:28:39;;;;;;;29.15;17.85;;;;;;;;;;4855610;29;20041;-77
2022/01/13 21:31:07;;;;;;;29.65;18.67;;;;;;;;;;4856111;29;20116;-78
2022/01/13 21:33:34;;;;;;;31.60;18.70;;;;;;;;;;4854392;29;20053;-78
2022/01/13 21:36:16;;;;;;;33.20;18.73;;;;;;;;;;4854735;29;20294;-78
2022/01/13 21:38:44;;;;;;;28.60;18.77;;;;;;;;;;4855684;29;20587;-78
2022/01/13 21:41:12;;;;;;;30.02;17.73;;;;;;;;;;4857238;29;20049;-78
2022/01/13 21:43:38;;;;;;;30.10;19.67;;;;;;;;;;4856304;29;20049;-77
2022/01/13 21:46:07;;;;;;;31.70;18.45;;;;;;;;;;4855057;29;20061;-78
2022/01/13 21:48:34;;;;;;;28.80;17.70;;;;;;;;;;4857235;29;20074;-78
2022/01/13 21:51:00;;;;;;;29.83;18.73;;;;;;;;;;4840359;29;20049;-78
2022/01/13 21:53:27;;;;;;;30.50;18.60;;;;;;;;;;4855796;29;20105;-79